Time;durP1;ratioP1;P1;durP2;ratioP2;P2;SDS_P1;SDS_P2;PMS_P1;PMS_P2;Temp;Humidity;BMP_temperature;BMP_pressure;BME280_temperature;BME280_humidity;BME280_pressure;Samples;Min_cycle;Max_cycle;Signal;HPM_P1;HPM_P2
2023/09/10 00:01:24;;;;;;;1.52;1.08;;;;;;;16.46;100.00;100193.72;4929017;28;20051;-94
2023/09/10 00:03:49;;;;;;;1.80;1.10;;;;;;;16.50;100.00;100190.78;4954288;28;20126;-95
2023/09/10 00:06:15;;;;;;;1.98;1.02;;;;;;;16.59;100.00;100211.13;4954326;28;20115;-95
2023/09/10 00:08:40;;;;;;;0.70;0.70;;;;;;;16.54;100.00;100206.13;4957508;28;20054;-95
2023/09/10 00:11:06;;;;;;;0.50;0.50;;;;;;;16.58;100.00;100209.56;4944941;28;20046;-95
2023/09/10 00:13:32;;;;;;;0.38;0.38;;;;;;;16.46;100.00;100190.91;4936525;28;20518;-94
2023/09/10 00:15:57;;;;;;;0.70;0.63;;;;;;;16.42;100.00;100198.72;4953646;29;20043;-93
2023/09/10 00:18:23;;;;;;;0.22;0.22;;;;;;;16.36;100.00;100200.63;4955031;28;20050;-95
2023/09/10 00:20:52;;;;;;;1.35;1.25;;;;;;;16.30;100.00;100191.28;4957207;28;20555;-95
2023/09/10 00:23:18;;;;;;;1.50;1.17;;;;;;;16.24;100.00;100196.00;4955567;28;20058;-94
2023/09/10 00:25:43;;;;;;;0.22;0.22;;;;;;;16.19;100.00;100183.41;4943846;28;20045;-94
2023/09/10 00:28:09;;;;;;;0.28;0.28;;;;;;;16.12;100.00;100174.59;4947924;28;20046;-91
2023/09/10 00:30:35;;;;;;;1.27;0.65;;;;;;;16.23;100.00;100197.25;4964771;28;20043;-94
2023/09/10 00:33:00;;;;;;;0.63;0.63;;;;;;;16.06;100.00;100179.25;4949600;28;20035;-94
2023/09/10 00:35:26;;;;;;;0.60;0.60;;;;;;;16.22;100.00;100204.84;4938243;28;20062;-94
2023/09/10 00:37:52;;;;;;;2.15;0.90;;;;;;;16.13;100.00;100190.91;4937750;28;20039;-92
2023/09/10 00:40:17;;;;;;;0.30;0.25;;;;;;;16.02;100.00;100175.84;4953414;28;20054;-95
2023/09/10 00:42:43;;;;;;;0.95;0.95;;;;;;;16.10;100.00;100191.06;4934549;28;20042;-95
2023/09/10 00:45:10;;;;;;;0.73;0.73;;;;;;;16.10;100.00;100191.06;4940458;28;20034;-95
2023/09/10 00:47:41;;;;;;;1.13;1.02;;;;;;;16.09;100.00;100193.09;4985446;28;20775;-94
2023/09/10 00:50:11;;;;;;;1.20;0.82;;;;;;;16.05;100.00;100189.69;4965317;28;20441;-93
2023/09/10 00:52:41;;;;;;;1.00;0.85;;;;;;;15.99;100.00;100191.56;4939879;28;20041;-94
2023/09/10 00:55:08;;;;;;;1.02;0.93;;;;;;;16.06;100.00;100201.63;4944038;28;20448;-95
2023/09/10 00:57:33;;;;;;;3.58;1.65;;;;;;;16.02;100.00;100201.03;4967794;28;20042;-95
2023/09/10 00:59:59;;;;;;;0.50;0.50;;;;;;;15.96;100.00;100186.91;4936113;28;20471;-94
2023/09/10 01:05:01;;;;;;;0.90;0.90;;;;;;;16.05;100.00;100202.91;5001458;28;20056;-89
2023/09/10 01:07:26;;;;;;;0.73;0.60;;;;;;;15.97;100.00;100198.88;4972399;28;20038;-89
2023/09/10 01:09:52;;;;;;;1.75;1.30;;;;;;;15.97;100.00;100196.88;4985416;28;20066;-90
2023/09/10 01:12:31;;;;;;;0.25;0.25;;;;;;;15.92;100.00;100214.28;4978055;28;20047;-88
2023/09/10 01:15:15;;;;;;;2.65;1.83;;;;;;;15.85;100.00;100212.56;4992658;28;20524;-89
2023/09/10 01:18:20;;;;;;;0.40;0.40;;;;;;;15.79;100.00;100214.47;4989113;28;20045;-88
2023/09/10 01:21:04;;;;;;;2.08;1.08;;;;;;;15.75;100.00;100205.44;4996860;28;20046;-89
2023/09/10 01:23:45;;;;;;;1.60;1.13;;;;;;;15.72;100.00;100203.59;4997264;28;20152;-89
2023/09/10 01:26:10;;;;;;;2.28;2.08;;;;;;;15.61;100.00;100189.28;4973877;28;20050;-89
2023/09/10 01:28:36;;;;;;;0.70;0.63;;;;;;;15.65;100.00;100206.69;4988865;28;20105;-89
2023/09/10 01:31:01;;;;;;;0.68;0.68;;;;;;;15.54;100.00;100194.44;4986419;28;20068;-89
2023/09/10 01:33:35;;;;;;;1.15;1.00;;;;;;;15.59;100.00;100208.56;4981054;28;20124;-89
2023/09/10 01:36:29;;;;;;;0.85;0.82;;;;;;;15.61;100.00;100217.25;4976001;28;20113;-89
2023/09/10 01:38:58;;;;;;;4.20;0.93;;;;;;;15.59;100.00;100208.56;4987143;28;20045;-89
2023/09/10 01:41:24;;;;;;;0.85;0.73;;;;;;;15.57;100.00;100199.13;4988755;28;20050;-88
2023/09/10 01:43:51;;;;;;;0.40;0.40;;;;;;;15.56;100.00;100198.34;4972313;28;20186;-89
2023/09/10 01:46:17;;;;;;;0.70;0.55;;;;;;;15.42;100.00;100193.31;4964384;28;20046;-89
2023/09/10 01:48:43;;;;;;;1.20;1.10;;;;;;;15.40;100.00;100190.22;4981240;28;20037;-89
2023/09/10 01:51:08;;;;;;;1.38;0.85;;;;;;;15.37;100.00;100193.94;4986083;28;20029;-89
2023/09/10 01:53:34;;;;;;;0.50;0.50;;;;;;;15.42;100.00;100198.91;4953504;28;20454;-89
2023/09/10 01:56:00;;;;;;;0.25;0.25;;;;;;;15.35;100.00;100188.06;4970853;28;20405;-89
2023/09/10 01:58:25;;;;;;;0.30;0.30;;;;;;;15.35;100.00;100190.84;4992146;28;20777;-90
2023/09/10 02:00:51;;;;;;;2.83;2.22;;;;;;;15.38;100.00;100201.09;4969855;28;20600;-89
2023/09/10 02:03:17;;;;;;;0.35;0.35;;;;;;;15.35;100.00;100199.22;4969206;28;20046;-89
2023/09/10 02:05:43;;;;;;;1.35;0.77;;;;;;;15.33;100.00;100201.69;4965057;28;20041;-89
2023/09/10 02:08:09;;;;;;;0.65;0.65;;;;;;;15.35;100.00;100199.22;4964670;28;20050;-89
2023/09/10 02:10:35;;;;;;;1.05;0.95;;;;;;;15.22;100.00;100193.00;4956542;28;20039;-89
2023/09/10 02:13:01;;;;;;;0.65;0.63;;;;;;;15.26;100.00;100211.19;4954836;28;20078;-89
2023/09/10 02:15:26;;;;;;;0.60;0.60;;;;;;;15.13;100.00;100193.78;4938853;28;20125;-89
2023/09/10 02:17:58;;;;;;;1.75;1.65;;;;;;;15.20;100.00;100206.69;4952891;28;20046;-89
2023/09/10 02:20:24;;;;;;;0.88;0.75;;;;;;;15.12;100.00;100197.84;4955374;28;20421;-89
2023/09/10 02:22:49;;;;;;;2.03;1.13;;;;;;;15.11;100.00;100189.91;4970103;28;20042;-89
2023/09/10 02:25:15;;;;;;;1.27;1.17;;;;;;;15.18;100.00;100204.34;4971086;28;20417;-89
2023/09/10 02:27:41;;;;;;;1.48;0.90;;;;;;;15.09;100.00;100192.38;4969490;28;20057;-89
2023/09/10 02:30:08;;;;;;;0.57;0.57;;;;;;;15.06;100.00;100210.84;4961998;28;20054;-89
2023/09/10 02:32:34;;;;;;;0.88;0.47;;;;;;;14.89;100.00;100182.41;4953045;28;20046;-89
2023/09/10 02:34:59;;;;;;;1.17;0.98;;;;;;;15.05;100.00;100208.50;4959701;28;20105;-89
2023/09/10 02:37:25;;;;;;;1.88;1.05;;;;;;;14.96;100.00;100189.75;4948184;28;20042;-89
2023/09/10 02:39:50;;;;;;;0.65;0.55;;;;;;;14.98;100.00;100192.06;4952389;28;20069;-89
2023/09/10 02:42:17;;;;;;;1.20;0.93;;;;;;;14.97;100.00;100208.03;4946467;28;20045;-87
2023/09/10 02:44:43;;;;;;;1.13;0.52;;;;;;;14.98;100.00;100189.25;4938159;28;20126;-89
2023/09/10 02:47:08;;;;;;;0.75;0.70;;;;;;;15.03;100.00;100194.25;4947479;28;20105;-88
2023/09/10 02:49:34;;;;;;;0.52;0.52;;;;;;;14.87;100.00;100187.72;4963724;28;20038;-88
2023/09/10 02:52:00;;;;;;;0.88;0.88;;;;;;;14.71;100.00;100199.16;4933822;28;20125;-90
2023/09/10 02:54:25;;;;;;;0.52;0.52;;;;;;;14.69;100.00;100204.41;4941584;28;20042;-90
2023/09/10 02:56:51;;;;;;;0.63;0.63;;;;;;;14.72;100.00;100192.31;4952107;28;20418;-90
2023/09/10 02:59:26;;;;;;;0.85;0.73;;;;;;;14.67;100.00;100192.94;4939041;28;20125;-90
2023/09/10 03:01:53;;;;;;;0.63;0.63;;;;;;;14.70;100.00;100200.38;4943368;28;20031;-90
2023/09/10 03:04:19;;;;;;;1.25;1.15;;;;;;;14.54;100.00;100203.44;4976677;28;20142;-90
2023/09/10 03:06:49;;;;;;;0.90;0.80;;;;;;;14.41;100.00;100178.41;4947708;28;20562;-90
2023/09/10 03:09:15;;;;;;;1.63;0.93;;;;;;;14.55;100.00;100205.00;4937761;28;20038;-90
2023/09/10 03:11:43;;;;;;;0.95;0.88;;;;;;;14.56;100.00;100205.78;4972168;28;20048;-90
2023/09/10 03:14:09;;;;;;;2.80;1.58;;;;;;;14.57;100.00;100196.16;4945238;28;20053;-90
2023/09/10 03:16:38;;;;;;;0.77;0.77;;;;;;;14.59;100.00;100202.84;4947738;28;20401;-90
2023/09/10 03:19:05;;;;;;;0.32;0.30;;;;;;;14.50;100.00;100191.63;4954418;28;20058;-91
2023/09/10 03:21:30;;;;;;;0.65;0.65;;;;;;;14.61;100.00;100219.09;4946630;28;20520;-90
2023/09/10 03:23:57;;;;;;;1.10;0.73;;;;;;;14.60;100.00;100207.16;4939552;28;20501;-90
2023/09/10 03:26:23;;;;;;;0.70;0.70;;;;;;;14.54;100.00;100205.44;4958937;28;20049;-90
2023/09/10 03:28:49;;;;;;;0.22;0.22;;;;;;;14.45;100.00;100186.66;4988709;28;20030;-90
2023/09/10 03:31:14;;;;;;;0.65;0.65;;;;;;;14.43;100.00;100191.94;4954802;28;20047;-90
2023/09/10 03:33:40;;;;;;;0.65;0.65;;;;;;;14.51;100.00;100193.19;4967557;28;20030;-90
2023/09/10 03:36:06;;;;;;;1.25;1.00;;;;;;;14.44;100.00;100188.66;4956239;28;20046;-90
2023/09/10 03:38:31;;;;;;;0.55;0.55;;;;;;;14.48;100.00;100194.09;4956980;28;20045;-91
2023/09/10 03:40:57;;;;;;;0.40;0.40;;;;;;;14.50;100.00;100196.44;4938356;28;20045;-90
2023/09/10 03:43:23;;;;;;;1.45;1.20;;;;;;;14.54;100.00;100197.84;4952821;28;20034;-89
2023/09/10 03:45:49;;;;;;;1.25;0.93;;;;;;;14.50;100.00;100200.00;4954343;28;20045;-89
2023/09/10 03:48:14;;;;;;;0.75;0.68;;;;;;;14.51;100.00;100207.16;4971957;28;20172;-89
2023/09/10 03:50:40;;;;;;;0.80;0.52;;;;;;;14.53;100.00;100207.47;4990462;28;20042;-90
2023/09/10 03:53:05;;;;;;;0.57;0.57;;;;;;;14.52;100.00;100200.31;4953287;28;20045;-89
2023/09/10 03:55:31;;;;;;;0.55;0.55;;;;;;;14.48;100.00;100198.94;4966800;28;20030;-89
2023/09/10 03:57:58;;;;;;;0.70;0.70;;;;;;;14.48;100.00;100194.09;4953432;28;20049;-90
2023/09/10 04:00:23;;;;;;;0.75;0.57;;;;;;;14.44;100.00;100187.88;4958288;28;20094;-90
2023/09/10 04:02:50;;;;;;;1.10;1.08;;;;;;;14.47;100.00;100189.78;4958199;28;20132;-89
2023/09/10 04:05:16;;;;;;;1.77;1.65;;;;;;;14.60;100.00;100198.78;4968474;28;20046;-89
2023/09/10 04:07:42;;;;;;;0.98;0.93;;;;;;;14.62;100.00;100199.13;4956231;28;21531;-90
2023/09/10 04:10:08;;;;;;;2.38;1.55;;;;;;;14.49;100.00;100181.69;4974633;28;20483;-89
2023/09/10 04:12:34;;;;;;;0.43;0.43;;;;;;;14.62;100.00;100209.50;4982260;28;20042;-90
2023/09/10 04:14:59;;;;;;;0.80;0.80;;;;;;;14.55;100.00;100191.03;4971853;28;20494;-90
2023/09/10 04:17:29;;;;;;;0.68;0.55;;;;;;;14.51;100.00;100187.63;4960249;28;20046;-90
2023/09/10 04:19:55;;;;;;;2.55;1.98;;;;;;;14.49;100.00;100184.50;4970998;28;20129;-90
2023/09/10 04:22:21;;;;;;;6.60;0.50;;;;;;;14.55;100.00;100205.00;4970224;28;20037;-89
2023/09/10 04:24:46;;;;;;;1.45;0.98;;;;;;;14.50;100.00;100202.81;4953807;28;20047;-89
2023/09/10 04:27:12;;;;;;;1.50;1.13;;;;;;;14.50;100.00;100200.00;4962472;28;20105;-89
2023/09/10 04:29:38;;;;;;;0.50;0.50;;;;;;;14.53;100.00;100204.66;4966318;28;20045;-90
2023/09/10 04:32:04;;;;;;;1.27;0.63;;;;;;;14.52;100.00;100203.09;4974685;28;20054;-89
2023/09/10 04:34:29;;;;;;;1.35;0.98;;;;;;;14.43;100.00;100186.34;4957126;28;20125;-90
2023/09/10 04:36:55;;;;;;;1.67;1.55;;;;;;;14.47;100.00;100195.34;4971873;28;20583;-89
2023/09/10 04:39:21;;;;;;;1.00;0.93;;;;;;;14.51;100.00;100204.38;4991662;28;20074;-90
2023/09/10 04:41:47;;;;;;;0.77;0.73;;;;;;;14.55;100.00;100210.59;4973199;28;20034;-90
2023/09/10 04:44:14;;;;;;;1.20;0.88;;;;;;;14.59;100.00;100211.22;4958763;28;20049;-89
2023/09/10 04:46:39;;;;;;;0.22;0.22;;;;;;;14.61;100.00;100205.94;4971306;28;20038;-89
2023/09/10 04:49:05;;;;;;;0.20;0.20;;;;;;;14.54;100.00;100199.88;4969952;28;20058;-89
2023/09/10 04:51:31;;;;;;;2.45;1.63;;;;;;;14.60;100.00;100212.75;4967867;28;20045;-89
2023/09/10 04:53:57;;;;;;;0.60;0.60;;;;;;;14.60;100.00;100207.16;4967270;28;20053;-89
2023/09/10 04:56:22;;;;;;;0.70;0.70;;;;;;;14.62;100.00;100204.72;4964822;28;20570;-89
2023/09/10 04:58:48;;;;;;;1.60;0.98;;;;;;;14.64;100.00;100207.78;4972349;28;20045;-90
2023/09/10 05:01:14;;;;;;;1.35;1.30;;;;;;;14.69;100.00;100214.78;4937963;28;20133;-89
2023/09/10 05:03:41;;;;;;;1.25;1.15;;;;;;;14.77;100.00;100222.44;4973185;28;20042;-90
2023/09/10 05:06:07;;;;;;;2.33;1.23;;;;;;;14.73;100.00;100209.84;4971502;28;20409;-91
2023/09/10 05:08:34;;;;;;;1.00;0.95;;;;;;;14.76;100.00;100204.09;4955435;28;20026;-90
2023/09/10 05:11:00;;;;;;;0.57;0.57;;;;;;;14.87;100.00;100218.44;4975468;28;20046;-90
2023/09/10 05:13:26;;;;;;;0.60;0.57;;;;;;;14.91;100.00;100216.28;4975203;28;20057;-90
2023/09/10 05:15:57;;;;;;;2.55;1.63;;;;;;;14.93;100.00;100221.38;4958575;28;20507;-90
2023/09/10 05:18:26;;;;;;;0.75;0.75;;;;;;;15.01;100.00;100224.66;4957843;28;20046;-90
2023/09/10 05:20:54;;;;;;;2.75;1.48;;;;;;;15.06;100.00;100218.44;4971514;28;20097;-89
2023/09/10 05:23:23;;;;;;;0.65;0.65;;;;;;;15.13;100.00;100229.31;4990026;28;20612;-89
2023/09/10 05:25:50;;;;;;;12.25;1.25;;;;;;;15.19;100.00;100230.28;4954917;28;20027;-90
2023/09/10 05:28:16;;;;;;;0.70;0.68;;;;;;;15.22;100.00;100221.75;4963770;28;20046;-90
2023/09/10 05:30:42;;;;;;;0.70;0.68;;;;;;;15.36;100.00;100239.94;4953657;28;20030;-90
2023/09/10 05:33:08;;;;;;;0.98;0.95;;;;;;;15.40;100.00;100230.16;4940190;28;20457;-90
2023/09/10 05:35:33;;;;;;;1.70;1.58;;;;;;;15.52;100.00;100231.25;4956512;28;20034;-90
2023/09/10 05:37:59;;;;;;;0.63;0.50;;;;;;;15.62;100.00;100235.59;4950527;28;20155;-90
2023/09/10 05:40:25;;;;;;;2.35;2.15;;;;;;;15.72;100.00;100228.75;4939428;28;20367;-90
2023/09/10 05:42:52;;;;;;;0.60;0.60;;;;;;;15.94;100.00;100238.97;4980361;28;20096;-90
2023/09/10 05:45:18;;;;;;;2.17;1.35;;;;;;;16.10;100.00;100235.81;4964458;28;20045;-91
2023/09/10 05:47:44;;;;;;;2.47;2.10;;;;;;;16.25;100.00;100231.16;4961661;28;20049;-90
2023/09/10 05:50:10;;;;;;;0.82;0.68;;;;;;;16.47;100.00;100226.06;4974189;28;20042;-90
2023/09/10 05:52:36;;;;;;;1.35;0.90;;;;;;;16.78;100.00;100232.19;4948649;28;20074;-91
2023/09/10 05:55:02;;;;;;;1.05;0.95;;;;;;;17.11;100.00;100231.38;4955086;28;20125;-91
2023/09/10 05:57:28;;;;;;;1.48;1.38;;;;;;;17.39;100.00;100218.69;4948257;28;20566;-90
2023/09/10 05:59:54;;;;;;;1.92;0.95;;;;;;;17.70;100.00;100219.09;4942292;28;20045;-91
2023/09/10 06:02:19;;;;;;;1.77;0.68;;;;;;;18.04;100.00;100225.28;4949976;28;20046;-91
2023/09/10 06:04:45;;;;;;;0.50;0.50;;;;;;;18.34;100.00;100248.53;4952049;28;20046;-91
2023/09/10 06:07:11;;;;;;;0.88;0.77;;;;;;;18.45;100.00;100232.63;4962457;28;20433;-93
2023/09/10 06:09:37;;;;;;;1.08;1.00;;;;;;;18.68;100.00;100247.06;4950605;28;20042;-92
2023/09/10 06:12:03;;;;;;;1.65;1.55;;;;;;;18.99;100.00;100241.66;4949267;28;20513;-91
2023/09/10 06:14:30;;;;;;;1.35;1.25;;;;;;;19.17;100.00;100229.38;4969780;28;20136;-91
2023/09/10 06:16:56;;;;;;;0.55;0.47;;;;;;;19.50;100.00;100238.25;4953023;28;20089;-91
2023/09/10 06:19:22;;;;;;;2.83;1.55;;;;;;;19.91;100.00;100236.13;4954117;28;20501;-92
2023/09/10 06:21:47;;;;;;;0.65;0.45;;;;;;;20.24;100.00;100241.31;4954509;28;20042;-91
2023/09/10 06:24:13;;;;;;;1.02;1.00;;;;;;;20.41;100.00;100242.25;4936880;28;20083;-92
2023/09/10 06:26:39;;;;;;;1.63;0.93;;;;;;;20.71;100.00;100239.91;4971279;28;20540;-92
2023/09/10 06:29:05;;;;;;;1.50;1.40;;;;;;;20.88;100.00;100246.44;4931376;28;20057;-92
2023/09/10 06:31:30;;;;;;;0.85;0.85;;;;;;;21.02;100.00;100251.16;4964982;28;20042;-92
2023/09/10 06:33:57;;;;;;;1.40;1.30;;;;;;;21.32;100.00;100249.53;4965641;28;20038;-91
2023/09/10 06:36:23;;;;;;;1.10;0.52;;;;;;;21.44;100.00;100238.28;4945817;28;20502;-92
2023/09/10 06:38:48;;;;;;;1.38;1.20;;;;;;;21.73;100.00;100246.34;4953899;28;20034;-92
2023/09/10 06:41:15;;;;;;;5.93;1.75;;;;;;;21.90;100.00;100252.81;4941082;28;20110;-92
2023/09/10 06:43:41;;;;;;;1.27;1.15;;;;;;;22.13;100.00;100253.63;4970349;28;20038;-93
2023/09/10 06:46:13;;;;;;;0.52;0.52;;;;;;;22.22;100.00;100257.00;4930022;28;20567;-92
2023/09/10 06:48:38;;;;;;;1.42;0.77;;;;;;;22.41;100.00;100250.81;4944274;28;20129;-93
2023/09/10 06:51:04;;;;;;;1.83;0.90;;;;;;;22.59;100.00;100259.56;4951960;28;20097;-93
2023/09/10 06:53:30;;;;;;;0.98;0.85;;;;;;;22.36;100.00;100248.78;4965823;28;20035;-91
2023/09/10 06:55:56;;;;;;;1.45;0.93;;;;;;;22.43;100.00;100256.75;4988419;28;20058;-90
2023/09/10 06:58:22;;;;;;;1.90;1.73;;;;;;;22.69;100.00;100248.78;4970310;28;20042;-90
2023/09/10 07:00:47;;;;;;;1.10;1.00;;;;;;;22.84;100.00;100240.03;4968777;28;20050;-90
2023/09/10 07:03:13;;;;;;;0.73;0.55;;;;;;;22.97;99.68;100251.59;4946049;28;20394;-93
2023/09/10 07:05:40;;;;;;;2.25;1.67;;;;;;;22.99;100.00;100249.78;4939907;28;20039;-91
2023/09/10 07:08:11;;;;;;;0.80;0.60;;;;;;;23.51;97.50;100254.78;4946905;28;20089;-91
2023/09/10 07:10:37;;;;;;;3.80;2.15;;;;;;;23.81;92.87;100238.66;4952046;28;20102;-91
2023/09/10 07:13:07;;;;;;;0.65;0.65;;;;;;;23.94;89.40;100258.66;4957497;28;20046;-91
2023/09/10 07:15:34;;;;;;;0.93;0.93;;;;;;;23.93;86.19;100245.81;4948751;28;20046;-91
2023/09/10 07:17:59;;;;;;;0.73;0.73;;;;;;;23.93;87.40;100251.47;4951817;28;20101;-91
2023/09/10 07:20:25;;;;;;;1.95;0.70;;;;;;;24.34;87.04;100259.19;4966550;28;20487;-91
2023/09/10 07:22:50;;;;;;;0.73;0.73;;;;;;;24.70;84.44;100262.75;4965999;28;20043;-91
2023/09/10 07:25:16;;;;;;;5.45;1.90;;;;;;;24.73;80.84;100253.97;4964587;28;20126;-90
2023/09/10 07:27:41;;;;;;;0.52;0.52;;;;;;;24.81;78.51;100254.91;4967398;28;20045;-91
2023/09/10 07:30:07;;;;;;;0.85;0.85;;;;;;;24.84;80.09;100258.75;4965712;28;20644;-90
2023/09/10 07:32:33;;;;;;;0.77;0.75;;;;;;;24.80;80.93;100266.78;4963896;28;20043;-91
2023/09/10 07:34:59;;;;;;;1.65;0.73;;;;;;;25.23;81.14;100266.91;4959541;28;20451;-91
2023/09/10 07:37:24;;;;;;;1.63;1.08;;;;;;;25.09;80.18;100271.69;4963704;28;20495;-91
2023/09/10 07:39:50;;;;;;;2.35;1.35;;;;;;;25.12;78.13;100272.66;4962406;28;20082;-91
2023/09/10 07:42:16;;;;;;;1.10;0.93;;;;;;;25.06;79.05;100267.06;4964588;28;20050;-91
2023/09/10 07:44:41;;;;;;;1.42;1.33;;;;;;;25.46;77.73;100266.09;4933282;29;20043;-92
2023/09/10 07:47:08;;;;;;;1.13;1.02;;;;;;;25.60;74.13;100266.97;4961253;28;20101;-92
2023/09/10 07:49:33;;;;;;;1.40;1.25;;;;;;;25.72;70.45;100264.78;4963468;28;20526;-92
2023/09/10 07:52:00;;;;;;;1.17;1.08;;;;;;;26.07;69.69;100270.22;4936214;28;20047;-91
2023/09/10 07:54:26;;;;;;;1.15;1.10;;;;;;;26.22;68.00;100269.75;4952546;28;20110;-91
2023/09/10 07:56:51;;;;;;;1.08;0.80;;;;;;;25.91;71.89;100269.16;4969784;28;20170;-91
2023/09/10 07:59:17;;;;;;;0.70;0.65;;;;;;;26.24;72.99;100255.78;4949541;28;20035;-91
2023/09/10 08:01:43;;;;;;;1.33;1.23;;;;;;;26.28;70.04;100273.28;4965856;28;20046;-92
2023/09/10 08:04:08;;;;;;;2.05;1.17;;;;;;;26.70;66.08;100271.53;4959632;28;20149;-91
2023/09/10 08:06:34;;;;;;;1.75;1.15;;;;;;;26.87;63.47;100261.44;4971601;28;20035;-91
2023/09/10 08:08:59;;;;;;;1.08;1.02;;;;;;;26.45;63.18;100262.38;4958898;28;20106;-91
2023/09/10 08:11:25;;;;;;;1.02;0.98;;;;;;;25.81;65.18;100236.72;4970412;28;20312;-90
2023/09/10 08:13:51;;;;;;;0.80;0.80;;;;;;;25.83;68.82;100244.72;4939856;28;20046;-91
2023/09/10 08:16:17;;;;;;;2.75;1.83;;;;;;;26.30;68.14;100271.44;4973731;28;20121;-93
2023/09/10 08:18:44;;;;;;;1.13;1.13;;;;;;;26.52;62.42;100276.00;4970401;28;20106;-93
2023/09/10 08:21:11;;;;;;;1.23;1.13;;;;;;;26.82;57.88;100270.03;4941999;28;20105;-91
2023/09/10 08:23:54;;;;;;;1.15;1.05;;;;;;;27.08;58.60;100269.34;4970896;28;20112;-91
2023/09/10 08:26:20;;;;;;;0.95;0.88;;;;;;;27.03;61.51;100270.22;4957512;28;20466;-92
2023/09/10 08:28:46;;;;;;;0.60;0.47;;;;;;;27.23;60.65;100261.00;4959222;28;20038;-90
2023/09/10 08:31:12;;;;;;;1.13;1.02;;;;;;;27.51;58.46;100249.84;4973419;28;20092;-90
2023/09/10 08:33:37;;;;;;;0.70;0.70;;;;;;;27.84;57.43;100251.22;4967120;28;20050;-91
2023/09/10 08:36:06;;;;;;;1.08;0.98;;;;;;;28.15;54.75;100260.88;4958093;28;21061;-92
2023/09/10 08:38:32;;;;;;;0.68;0.68;;;;;;;28.32;54.24;100257.63;4951551;28;20101;-88
2023/09/10 08:40:57;;;;;;;1.23;1.13;;;;;;;28.47;53.37;100264.25;4955061;28;20070;-93
2023/09/10 08:43:41;;;;;;;0.77;0.77;;;;;;;28.42;52.06;100250.13;4952928;28;20078;-93
2023/09/10 08:46:09;;;;;;;1.15;1.02;;;;;;;28.55;50.43;100262.22;4969917;28;20034;-93
2023/09/10 08:48:39;;;;;;;0.65;0.65;;;;;;;28.43;48.59;100241.00;4968082;28;20552;-91
2023/09/10 08:51:06;;;;;;;0.63;0.52;;;;;;;28.53;47.36;100252.72;4949002;28;20085;-93
2023/09/10 08:53:33;;;;;;;1.25;0.88;;;;;;;28.82;47.13;100248.59;4965980;28;20038;-94
2023/09/10 08:55:58;;;;;;;0.65;0.65;;;;;;;28.73;45.00;100257.66;4939808;28;20042;-92
2023/09/10 08:58:25;;;;;;;1.20;1.02;;;;;;;28.70;45.87;100253.84;4953844;28;20119;-91
2023/09/10 09:00:51;;;;;;;0.57;0.45;;;;;;;28.93;45.98;100258.97;4938964;28;20034;-91
2023/09/10 09:03:17;;;;;;;0.80;0.80;;;;;;;29.02;45.78;100250.66;4937171;28;20042;-91
2023/09/10 09:05:43;;;;;;;1.58;0.98;;;;;;;29.01;46.36;100248.34;4954052;28;20038;-90
2023/09/10 09:08:15;;;;;;;1.05;1.05;;;;;;;29.31;44.59;100248.59;4949564;28;20134;-92
2023/09/10 09:10:41;;;;;;;2.17;2.00;;;;;;;29.33;44.37;100248.78;4964466;28;20050;-92
2023/09/10 09:13:09;;;;;;;1.48;1.38;;;;;;;29.61;44.54;100248.72;4953293;28;20034;-92
2023/09/10 09:15:37;;;;;;;1.10;0.82;;;;;;;29.82;43.95;100253.56;4952047;28;20048;-92
2023/09/10 09:18:04;;;;;;;2.95;2.05;;;;;;;30.12;41.94;100273.72;4969725;28;20046;-91
2023/09/10 09:20:30;;;;;;;3.42;2.63;;;;;;;29.95;42.64;100253.44;4952232;28;20043;-91
2023/09/10 09:23:00;;;;;;;0.82;0.80;;;;;;;30.14;42.49;100258.81;4969061;28;20501;-91
2023/09/10 09:25:26;;;;;;;3.58;1.65;;;;;;;29.57;41.31;100262.59;4951983;28;20050;-92
2023/09/10 09:27:55;;;;;;;1.55;1.17;;;;;;;29.20;42.81;100226.00;4971617;28;20035;-90
2023/09/10 09:30:20;;;;;;;1.42;1.33;;;;;;;29.17;42.88;100245.03;4938675;28;20399;-89
2023/09/10 09:32:46;;;;;;;1.25;1.15;;;;;;;29.44;41.48;100251.28;4961844;28;20073;-90
2023/09/10 09:35:12;;;;;;;1.63;1.33;;;;;;;29.90;41.86;100257.25;4971732;28;20058;-91
2023/09/10 09:37:37;;;;;;;1.50;0.88;;;;;;;29.63;41.63;100246.06;4958541;28;20053;-91
2023/09/10 09:40:04;;;;;;;0.60;0.60;;;;;;;29.52;41.45;100252.09;4962552;28;20069;-92
2023/09/10 09:42:29;;;;;;;1.75;1.52;;;;;;;29.33;42.38;100250.84;4940605;28;20093;-92
2023/09/10 09:44:55;;;;;;;2.72;1.65;;;;;;;29.87;42.34;100241.22;4963197;28;20054;-92
2023/09/10 09:47:21;;;;;;;0.60;0.60;;;;;;;30.02;41.28;100241.25;4972408;28;20754;-91
2023/09/10 09:49:50;;;;;;;1.42;1.33;;;;;;;30.34;40.10;100241.50;4971167;28;20050;-91
2023/09/10 09:52:17;;;;;;;0.50;0.50;;;;;;;30.50;39.99;100240.22;4968622;28;20043;-91
2023/09/10 09:54:43;;;;;;;1.20;1.10;;;;;;;30.60;40.31;100236.78;4965449;28;20034;-91
2023/09/10 09:57:10;;;;;;;1.35;1.25;;;;;;;30.76;39.50;100241.19;4933899;28;20630;-91
2023/09/10 09:59:36;;;;;;;3.13;0.82;;;;;;;30.59;38.98;100240.97;4945217;28;20046;-95
2023/09/10 10:02:03;;;;;;;1.35;1.25;;;;;;;30.80;38.32;100238.69;4954208;28;20126;-91
2023/09/10 10:04:31;;;;;;;0.93;0.80;;;;;;;31.00;38.82;100234.88;4969629;28;20096;-92
2023/09/10 10:06:57;;;;;;;1.55;0.88;;;;;;;30.91;40.05;100232.56;4973143;28;20038;-92
2023/09/10 10:09:22;;;;;;;1.85;0.88;;;;;;;31.14;39.70;100226.84;4956638;28;20516;-92
2023/09/10 10:11:48;;;;;;;1.45;1.33;;;;;;;31.10;39.43;100210.00;4941321;28;20042;-91
2023/09/10 10:14:14;;;;;;;1.70;0.80;;;;;;;31.40;38.44;100230.00;4957001;28;20185;-91
2023/09/10 10:16:40;;;;;;;1.58;1.25;;;;;;;31.41;38.76;100222.94;4958121;28;20046;-91
2023/09/10 10:19:07;;;;;;;0.55;0.55;;;;;;;31.76;36.94;100229.69;4970992;28;20604;-91
2023/09/10 10:21:32;;;;;;;1.67;1.55;;;;;;;31.60;38.79;100222.50;4977154;28;20053;-92
2023/09/10 10:23:58;;;;;;;1.00;0.98;;;;;;;31.30;38.85;100217.59;4957357;28;20042;-91
2023/09/10 10:26:24;;;;;;;0.93;0.85;;;;;;;31.47;39.25;100219.84;4956886;28;20038;-91
2023/09/10 10:28:50;;;;;;;1.85;1.25;;;;;;;31.50;38.63;100210.09;4957842;28;20035;-91
2023/09/10 10:31:17;;;;;;;2.08;1.77;;;;;;;31.58;39.54;100218.69;4954077;28;20050;-90
2023/09/10 10:33:54;;;;;;;0.82;0.80;;;;;;;31.64;38.03;100216.34;4981824;28;20051;-91
2023/09/10 10:36:31;;;;;;;1.85;1.40;;;;;;;31.02;38.43;100215.78;4959486;28;20042;-90
2023/09/10 10:38:57;;;;;;;1.23;0.85;;;;;;;30.89;38.61;100207.38;4982141;28;20038;-91
2023/09/10 10:41:25;;;;;;;1.23;1.15;;;;;;;31.33;39.41;100210.72;4967633;28;20406;-91
2023/09/10 10:43:55;;;;;;;1.48;1.17;;;;;;;31.13;39.30;100203.16;4953034;28;20328;-90
2023/09/10 10:46:24;;;;;;;0.88;0.88;;;;;;;31.33;38.72;100204.22;4944234;28;20089;-91
2023/09/10 10:48:50;;;;;;;0.90;0.70;;;;;;;31.54;38.45;100198.25;4950870;28;20026;-91
2023/09/10 10:51:16;;;;;;;1.20;1.20;;;;;;;31.77;38.10;100190.28;4943983;28;20080;-91
2023/09/10 10:53:42;;;;;;;1.38;1.27;;;;;;;32.21;38.37;100204.97;4953455;28;20414;-91
2023/09/10 10:56:08;;;;;;;1.42;1.33;;;;;;;32.10;34.90;100203.31;4963831;28;20047;-90
2023/09/10 10:58:37;;;;;;;1.63;1.35;;;;;;;31.89;34.42;100199.97;4931137;28;20057;-91
2023/09/10 11:01:03;;;;;;;1.38;1.00;;;;;;;32.15;37.03;100193.69;4972279;28;20088;-93
2023/09/10 11:03:28;;;;;;;1.88;1.75;;;;;;;32.33;38.21;100198.16;4969245;28;20050;-91
2023/09/10 11:05:54;;;;;;;0.95;0.85;;;;;;;32.42;37.56;100193.13;4949133;28;20062;-90
2023/09/10 11:08:30;;;;;;;1.13;1.02;;;;;;;32.13;38.37;100193.53;4969345;28;20487;-91
2023/09/10 11:10:56;;;;;;;1.15;0.75;;;;;;;32.35;37.24;100186.84;4925293;28;20053;-90
2023/09/10 11:13:22;;;;;;;1.20;1.02;;;;;;;32.14;36.77;100186.47;4950880;28;20034;-90
2023/09/10 11:16:03;;;;;;;1.30;1.20;;;;;;;32.10;36.24;100188.97;4966303;28;20455;-90
2023/09/10 11:18:35;;;;;;;2.33;1.55;;;;;;;32.26;36.79;100190.38;4966548;28;20070;-90
2023/09/10 11:21:08;;;;;;;0.85;0.70;;;;;;;32.22;37.61;100174.91;4964966;28;20509;-90